KSUW/SUW METAR and TAF weather

Enter ICAO airport designator
Station Type Date Time Source
KSUW METAR 2022/12/05 13:35 UTC NOAA

KSUW 051335Z AUTO 26007KT 10SM CLR M05/M09 A2976 RMK AO2 T10491086


Station Type Date Time Source
KSUW Decoded METAR 2022/12/05 13:35 UTC NOAA

Superior, Richard I. Bong Airport, WI, United States (KSUW) 46-41-23N 092-05-41W
Dec 05, 2022 - 08:35 AM EST / 2022.12.05 1335 UTC
Wind: from the W (260 degrees) at 8 MPH (7 KT):0
Visibility: 10 mile(s):0
Sky conditions: clear
Temperature: 23.2 F (-4.9 C)
Windchill: 14 F (-10 C):1
Dew Point: 16.5 F (-8.6 C)
Relative Humidity: 75%
Pressure (altimeter): 29.76 in. Hg (1007 hPa)
ob: KSUW 051335Z AUTO 26007KT 10SM CLR M05/M09 A2976 RMK AO2 T10491086
cycle: 13

Station Type Date Time Source
KSUW TAF UTC NOAA

Error!

Example: see airport list